Time;durP1;ratioP1;P1;durP2;ratioP2;P2;SDS_P1;SDS_P2;PMS_P1;PMS_P2;Temp;Humidity;BMP_temperature;BMP_pressure;BME280_temperature;BME280_humidity;BME280_pressure;Samples;Min_cycle;Max_cycle;Signal;HPM_P1;HPM_P2
2023/09/12 00:02:24;;;;;;;32.15;25.58;;;;;;;;;;4984942;28;20026;-75
2023/09/12 00:04:50;;;;;;;34.55;25.48;;;;;;;;;;4985335;28;20042;-76
2023/09/12 00:07:16;;;;;;;41.28;25.85;;;;;;;;;;4981927;28;20026;-75
2023/09/12 00:09:42;;;;;;;34.80;26.90;;;;;;;;;;4984624;28;20053;-75
2023/09/12 00:12:08;;;;;;;36.33;26.27;;;;;;;;;;4984946;28;20464;-76
2023/09/12 00:14:34;;;;;;;31.17;25.25;;;;;;;;;;4982254;28;20546;-74
2023/09/12 00:17:01;;;;;;;30.38;24.42;;;;;;;;;;4981265;28;20039;-74
2023/09/12 00:19:27;;;;;;;34.47;27.23;;;;;;;;;;4973589;28;20027;-74
2023/09/12 00:21:53;;;;;;;37.63;26.05;;;;;;;;;;4986849;28;20396;-75
2023/09/12 00:24:19;;;;;;;30.33;24.80;;;;;;;;;;4984980;28;20066;-75
2023/09/12 00:26:45;;;;;;;33.55;26.42;;;;;;;;;;4984228;28;20092;-74
2023/09/12 00:29:11;;;;;;;31.65;24.88;;;;;;;;;;4983584;28;20489;-75
2023/09/12 00:31:37;;;;;;;32.92;24.90;;;;;;;;;;4979771;28;20030;-75
2023/09/12 00:34:03;;;;;;;32.67;25.25;;;;;;;;;;4986209;28;20038;-75
2023/09/12 00:36:29;;;;;;;36.17;27.20;;;;;;;;;;4987241;28;20030;-86
2023/09/12 00:38:55;;;;;;;35.47;25.20;;;;;;;;;;4985178;28;20031;-90
2023/09/12 00:41:21;;;;;;;37.88;27.10;;;;;;;;;;4981284;28;20039;-88
2023/09/12 00:43:47;;;;;;;33.97;25.67;;;;;;;;;;4984623;28;20038;-76
2023/09/12 00:46:18;;;;;;;32.50;24.27;;;;;;;;;;4988636;28;20034;-75
2023/09/12 00:48:44;;;;;;;34.05;26.08;;;;;;;;;;4980387;28;20066;-75
2023/09/12 00:51:10;;;;;;;32.88;25.55;;;;;;;;;;4988952;28;20038;-75
2023/09/12 00:53:36;;;;;;;33.47;26.17;;;;;;;;;;4986281;28;20117;-74
2023/09/12 00:56:03;;;;;;;33.47;26.42;;;;;;;;;;4980958;28;20046;-76
2023/09/12 00:58:29;;;;;;;42.33;27.33;;;;;;;;;;4979451;28;20030;-75
2023/09/12 01:00:56;;;;;;;38.35;27.42;;;;;;;;;;4978523;28;20089;-76
2023/09/12 01:03:22;;;;;;;43.92;30.73;;;;;;;;;;5002090;28;20034;-75
2023/09/12 01:05:48;;;;;;;34.65;27.10;;;;;;;;;;4993389;28;20083;-75
2023/09/12 01:08:14;;;;;;;38.03;26.83;;;;;;;;;;4985264;28;22050;-75
2023/09/12 01:10:45;;;;;;;40.92;26.88;;;;;;;;;;4986370;28;20097;-76
2023/09/12 01:13:12;;;;;;;36.03;28.42;;;;;;;;;;4998759;28;20042;-76
2023/09/12 01:15:38;;;;;;;38.65;27.67;;;;;;;;;;4991219;28;20048;-75
2023/09/12 01:18:04;;;;;;;36.95;29.27;;;;;;;;;;4985757;28;20647;-76
2023/09/12 01:20:32;;;;;;;41.85;28.13;;;;;;;;;;4988340;28;20477;-75
2023/09/12 01:23:19;;;;;;;37.38;27.15;;;;;;;;;;4987132;28;20034;-75
2023/09/12 01:25:51;;;;;;;33.00;27.00;;;;;;;;;;4981757;28;20440;-75
2023/09/12 01:28:18;;;;;;;34.67;26.52;;;;;;;;;;4987501;28;20432;-75
2023/09/12 01:30:46;;;;;;;28.80;24.45;;;;;;;;;;4982865;28;20043;-75
2023/09/12 01:33:12;;;;;;;36.05;27.27;;;;;;;;;;4983725;28;20034;-74
2023/09/12 01:35:38;;;;;;;32.85;26.05;;;;;;;;;;4984166;28;20032;-76
2023/09/12 01:38:04;;;;;;;29.88;25.48;;;;;;;;;;4993642;28;20035;-75
2023/09/12 01:40:56;;;;;;;37.28;25.45;;;;;;;;;;4976910;28;20062;-76
2023/09/12 01:43:24;;;;;;;33.85;24.73;;;;;;;;;;4977750;28;20129;-75
2023/09/12 01:45:54;;;;;;;29.83;25.25;;;;;;;;;;4981378;28;20034;-76
2023/09/12 01:48:21;;;;;;;30.92;24.52;;;;;;;;;;4984739;28;20130;-75
2023/09/12 01:50:48;;;;;;;31.60;25.88;;;;;;;;;;4986597;28;20034;-75
2023/09/12 01:53:14;;;;;;;32.83;26.42;;;;;;;;;;4989959;28;20348;-76
2023/09/12 01:55:41;;;;;;;34.75;27.55;;;;;;;;;;4986312;28;20034;-76
2023/09/12 01:58:07;;;;;;;32.28;26.13;;;;;;;;;;4986568;28;20038;-74
2023/09/12 02:00:34;;;;;;;33.70;25.88;;;;;;;;;;4989738;28;20031;-76
2023/09/12 02:03:02;;;;;;;29.90;25.77;;;;;;;;;;4984842;28;20027;-76
2023/09/12 02:05:28;;;;;;;36.42;24.27;;;;;;;;;;4997004;28;20076;-75
2023/09/12 02:07:54;;;;;;;30.95;23.50;;;;;;;;;;4980972;28;20035;-75
2023/09/12 02:10:20;;;;;;;33.83;27.40;;;;;;;;;;4984223;28;20030;-74
2023/09/12 02:12:46;;;;;;;33.13;25.05;;;;;;;;;;4988356;28;20054;-74
2023/09/12 02:15:12;;;;;;;32.95;26.23;;;;;;;;;;4985582;28;20086;-75
2023/09/12 02:17:38;;;;;;;29.30;24.75;;;;;;;;;;4980368;28;20114;-75
2023/09/12 02:20:05;;;;;;;31.77;26.17;;;;;;;;;;4982479;28;20034;-75
2023/09/12 02:22:31;;;;;;;32.33;24.20;;;;;;;;;;4979771;28;20364;-74
2023/09/12 02:24:57;;;;;;;34.47;26.30;;;;;;;;;;4988983;28;20506;-75
2023/09/12 02:27:23;;;;;;;30.48;25.20;;;;;;;;;;4982769;28;20084;-75
2023/09/12 02:29:49;;;;;;;31.13;24.95;;;;;;;;;;4986302;28;20062;-75
2023/09/12 02:32:15;;;;;;;30.02;24.17;;;;;;;;;;4980668;28;20132;-74
2023/09/12 02:34:41;;;;;;;27.52;23.92;;;;;;;;;;4978791;28;20057;-75
2023/09/12 02:37:07;;;;;;;31.85;24.55;;;;;;;;;;4976702;28;20080;-75
2023/09/12 02:39:34;;;;;;;34.20;25.45;;;;;;;;;;4985403;28;20507;-74
2023/09/12 02:41:59;;;;;;;31.95;24.35;;;;;;;;;;4987367;28;20038;-75
2023/09/12 02:44:25;;;;;;;33.47;24.35;;;;;;;;;;4986235;28;20038;-75
2023/09/12 02:46:52;;;;;;;35.75;26.60;;;;;;;;;;4980264;28;20050;-75
2023/09/12 02:49:18;;;;;;;34.67;25.85;;;;;;;;;;4977912;28;20097;-74
2023/09/12 02:51:44;;;;;;;35.10;25.15;;;;;;;;;;4985761;28;20117;-75
2023/09/12 02:54:09;;;;;;;30.95;23.27;;;;;;;;;;4981667;28;20050;-74
2023/09/12 02:56:35;;;;;;;32.85;22.70;;;;;;;;;;4983864;28;20043;-74
2023/09/12 02:59:01;;;;;;;28.90;21.35;;;;;;;;;;4986146;28;20084;-75
2023/09/12 03:01:27;;;;;;;32.83;21.90;;;;;;;;;;4980811;28;20117;-76
2023/09/12 03:03:54;;;;;;;48.78;21.65;;;;;;;;;;4982642;28;20046;-74
2023/09/12 03:06:20;;;;;;;51.33;22.63;;;;;;;;;;4981723;28;20158;-74
2023/09/12 03:08:47;;;;;;;115.95;22.33;;;;;;;;;;4984822;28;20092;-75
2023/09/12 03:11:13;;;;;;;28.33;20.90;;;;;;;;;;4984030;28;20042;-74
2023/09/12 03:13:39;;;;;;;67.65;20.95;;;;;;;;;;4987822;28;20046;-75
2023/09/12 03:16:05;;;;;;;78.78;20.33;;;;;;;;;;4978201;28;20030;-74
2023/09/12 03:18:31;;;;;;;69.25;21.48;;;;;;;;;;4980874;28;20045;-74
2023/09/12 03:20:57;;;;;;;122.88;21.58;;;;;;;;;;4983497;28;20026;-74
2023/09/12 03:23:23;;;;;;;91.22;20.02;;;;;;;;;;4988131;28;20034;-74
2023/09/12 03:25:49;;;;;;;46.38;19.00;;;;;;;;;;4980526;28;20555;-75
2023/09/12 03:28:15;;;;;;;121.80;19.40;;;;;;;;;;4989298;28;20516;-75
2023/09/12 03:30:41;;;;;;;36.67;17.83;;;;;;;;;;4975641;28;20058;-74
2023/09/12 03:33:07;;;;;;;82.45;20.75;;;;;;;;;;4983718;28;20035;-75
2023/09/12 03:35:33;;;;;;;47.70;20.33;;;;;;;;;;4980559;28;20389;-75
2023/09/12 03:38:00;;;;;;;33.58;18.27;;;;;;;;;;4977511;28;20140;-75
2023/09/12 03:40:26;;;;;;;46.13;19.73;;;;;;;;;;4978122;28;20126;-74
2023/09/12 03:42:52;;;;;;;91.15;21.15;;;;;;;;;;4984424;28;20039;-74
2023/09/12 03:45:18;;;;;;;93.45;23.52;;;;;;;;;;4978865;28;20440;-75
2023/09/12 03:47:46;;;;;;;61.95;22.25;;;;;;;;;;4980189;28;20046;-75
2023/09/12 03:50:13;;;;;;;73.95;23.65;;;;;;;;;;4980953;28;20354;-75
2023/09/12 03:52:39;;;;;;;117.60;24.58;;;;;;;;;;4984268;28;20125;-75
2023/09/12 03:55:05;;;;;;;59.80;23.85;;;;;;;;;;4987140;28;20449;-75
2023/09/12 03:57:31;;;;;;;88.43;23.73;;;;;;;;;;4977377;28;20100;-75
2023/09/12 03:59:57;;;;;;;59.08;23.25;;;;;;;;;;4989085;28;20030;-75
2023/09/12 04:02:24;;;;;;;91.82;25.65;;;;;;;;;;4981371;28;20480;-75
2023/09/12 04:04:51;;;;;;;79.63;25.77;;;;;;;;;;4972304;28;20477;-75
2023/09/12 04:07:17;;;;;;;72.13;27.05;;;;;;;;;;4980823;28;20026;-74
2023/09/12 04:09:44;;;;;;;61.15;25.42;;;;;;;;;;4983192;28;20391;-76
2023/09/12 04:12:10;;;;;;;102.38;26.98;;;;;;;;;;4986537;28;20117;-75
2023/09/12 04:14:36;;;;;;;59.33;26.42;;;;;;;;;;4986853;28;20051;-75
2023/09/12 04:17:03;;;;;;;105.68;28.20;;;;;;;;;;4982797;28;20043;-74
2023/09/12 04:19:31;;;;;;;146.75;28.95;;;;;;;;;;4986537;28;20086;-75
2023/09/12 04:21:57;;;;;;;107.18;27.60;;;;;;;;;;4988836;28;20022;-75
2023/09/12 04:24:24;;;;;;;135.10;28.25;;;;;;;;;;4988419;28;20125;-75
2023/09/12 04:26:50;;;;;;;156.63;28.58;;;;;;;;;;4981523;28;20086;-75
2023/09/12 04:29:16;;;;;;;231.65;32.45;;;;;;;;;;4983885;28;20077;-75
2023/09/12 04:31:42;;;;;;;154.32;29.55;;;;;;;;;;4986970;28;20497;-75
2023/09/12 04:34:08;;;;;;;147.32;31.73;;;;;;;;;;4983588;28;20064;-75
2023/09/12 04:36:34;;;;;;;216.25;30.88;;;;;;;;;;4987985;28;20050;-75
2023/09/12 04:39:00;;;;;;;196.90;30.55;;;;;;;;;;4987264;28;20146;-74
2023/09/12 04:41:26;;;;;;;286.88;32.08;;;;;;;;;;4988263;28;20150;-75
2023/09/12 04:43:52;;;;;;;237.35;34.45;;;;;;;;;;4985786;28;20064;-76
2023/09/12 04:46:18;;;;;;;176.65;32.85;;;;;;;;;;4982676;28;20103;-75
2023/09/12 04:48:44;;;;;;;118.65;36.10;;;;;;;;;;4981258;28;20031;-75
2023/09/12 04:51:10;;;;;;;211.65;36.05;;;;;;;;;;4983223;28;20045;-75
2023/09/12 04:53:36;;;;;;;152.85;34.28;;;;;;;;;;4987645;28;20451;-74
2023/09/12 04:56:03;;;;;;;291.75;36.42;;;;;;;;;;4995276;28;20669;-74
2023/09/12 04:58:29;;;;;;;187.43;37.42;;;;;;;;;;4984145;28;20039;-76
2023/09/12 05:00:55;;;;;;;166.18;33.30;;;;;;;;;;4983034;28;20039;-75
2023/09/12 05:03:22;;;;;;;112.30;34.45;;;;;;;;;;4985127;28;20106;-76
2023/09/12 05:05:48;;;;;;;108.20;35.30;;;;;;;;;;4983827;28;20133;-75
2023/09/12 05:08:14;;;;;;;86.40;34.45;;;;;;;;;;4983919;28;20520;-74
2023/09/12 05:10:40;;;;;;;107.95;33.25;;;;;;;;;;4984063;28;20034;-76
2023/09/12 05:13:06;;;;;;;114.20;35.75;;;;;;;;;;4985728;28;20037;-75
2023/09/12 05:15:32;;;;;;;81.50;35.53;;;;;;;;;;4984295;28;20405;-75
2023/09/12 05:17:58;;;;;;;70.10;34.55;;;;;;;;;;4977220;28;20074;-76
2023/09/12 05:20:24;;;;;;;89.07;34.53;;;;;;;;;;4981656;28;20034;-76
2023/09/12 05:22:50;;;;;;;66.50;35.17;;;;;;;;;;4987937;28;20512;-74
2023/09/12 05:25:16;;;;;;;87.15;33.28;;;;;;;;;;4982841;28;20061;-75
2023/09/12 05:27:42;;;;;;;191.27;34.70;;;;;;;;;;4984527;28;20042;-75
2023/09/12 05:30:08;;;;;;;231.55;38.20;;;;;;;;;;4983202;28;20113;-75
2023/09/12 05:32:36;;;;;;;141.30;30.48;;;;;;;;;;4986409;28;20042;-87
2023/09/12 05:35:02;;;;;;;76.22;33.92;;;;;;;;;;4979654;28;20034;-88
2023/09/12 05:37:28;;;;;;;124.55;34.17;;;;;;;;;;4987083;28;20038;-88
2023/09/12 05:39:54;;;;;;;121.70;33.65;;;;;;;;;;4988641;28;20397;-87
2023/09/12 05:42:22;;;;;;;109.82;35.25;;;;;;;;;;4991407;28;20030;-84
2023/09/12 05:44:49;;;;;;;70.35;31.35;;;;;;;;;;4982675;28;20022;-83
2023/09/12 05:47:15;;;;;;;151.23;35.25;;;;;;;;;;4982555;28;20046;-83
2023/09/12 05:49:41;;;;;;;155.32;34.83;;;;;;;;;;4982140;28;20015;-83
2023/09/12 05:52:07;;;;;;;86.28;30.73;;;;;;;;;;4983353;28;20130;-82
2023/09/12 05:54:33;;;;;;;113.93;28.50;;;;;;;;;;4981406;28;20039;-84
2023/09/12 05:56:59;;;;;;;189.10;45.40;;;;;;;;;;4978244;28;20035;-93
2023/09/12 05:59:25;;;;;;;126.60;37.40;;;;;;;;;;4989845;28;20381;-88
2023/09/12 06:01:52;;;;;;;112.10;38.17;;;;;;;;;;4978742;28;20093;-83
2023/09/12 06:04:18;;;;;;;166.05;40.65;;;;;;;;;;4983685;28;20615;-86
2023/09/12 06:06:45;;;;;;;210.82;36.60;;;;;;;;;;4978229;28;20041;-92
2023/09/12 06:09:11;;;;;;;85.90;39.10;;;;;;;;;;4987234;28;20041;-90
2023/09/12 06:11:37;;;;;;;128.43;40.05;;;;;;;;;;4987147;28;20038;-79
2023/09/12 06:14:03;;;;;;;143.38;35.70;;;;;;;;;;4986073;28;20042;-78
2023/09/12 06:16:29;;;;;;;126.53;39.42;;;;;;;;;;4985564;28;20026;-77
2023/09/12 06:18:55;;;;;;;238.70;42.88;;;;;;;;;;4979027;28;20196;-78
2023/09/12 06:21:21;;;;;;;124.32;42.85;;;;;;;;;;4979769;28;20113;-78
2023/09/12 06:23:48;;;;;;;104.18;41.35;;;;;;;;;;4984340;28;20050;-77
2023/09/12 06:26:14;;;;;;;98.18;43.05;;;;;;;;;;4982977;28;20050;-81
2023/09/12 06:28:40;;;;;;;132.05;44.13;;;;;;;;;;4979948;28;20114;-79
2023/09/12 06:31:09;;;;;;;85.18;40.75;;;;;;;;;;4984698;28;20026;-79
2023/09/12 06:33:35;;;;;;;84.40;43.33;;;;;;;;;;4999032;28;20134;-80
2023/09/12 06:36:02;;;;;;;73.55;41.67;;;;;;;;;;4984362;28;20105;-80
2023/09/12 06:38:28;;;;;;;111.07;47.53;;;;;;;;;;4990020;28;20026;-80
2023/09/12 06:40:55;;;;;;;100.68;45.72;;;;;;;;;;4986497;28;20120;-78
2023/09/12 06:43:21;;;;;;;66.95;40.35;;;;;;;;;;4988760;28;20054;-75
2023/09/12 06:45:48;;;;;;;150.68;47.83;;;;;;;;;;4988561;28;20562;-75
2023/09/12 06:48:14;;;;;;;66.53;38.92;;;;;;;;;;4984039;28;20065;-74
2023/09/12 06:50:40;;;;;;;76.05;41.33;;;;;;;;;;4991699;28;20022;-75
2023/09/12 06:53:07;;;;;;;78.72;42.92;;;;;;;;;;4986123;28;20034;-75
2023/09/12 06:55:33;;;;;;;71.85;42.65;;;;;;;;;;4986061;28;20038;-74
2023/09/12 06:57:59;;;;;;;73.30;42.47;;;;;;;;;;4982538;28;20027;-73
2023/09/12 07:00:26;;;;;;;63.03;38.00;;;;;;;;;;4985891;28;20038;-74
2023/09/12 07:02:52;;;;;;;71.35;42.70;;;;;;;;;;4977421;28;20030;-76
2023/09/12 07:05:18;;;;;;;55.80;38.17;;;;;;;;;;4982038;28;20042;-75
2023/09/12 07:07:44;;;;;;;65.93;39.00;;;;;;;;;;4982797;28;20081;-76
2023/09/12 07:10:11;;;;;;;65.93;38.92;;;;;;;;;;4981759;28;20026;-75
2023/09/12 07:12:37;;;;;;;64.28;40.70;;;;;;;;;;4987557;28;20077;-75
2023/09/12 07:15:03;;;;;;;68.70;39.58;;;;;;;;;;4973104;28;20042;-75
2023/09/12 07:17:30;;;;;;;71.35;39.03;;;;;;;;;;4975184;28;20030;-75
2023/09/12 07:19:56;;;;;;;51.85;33.28;;;;;;;;;;4986910;28;20105;-76
2023/09/12 07:22:22;;;;;;;69.68;40.08;;;;;;;;;;4975037;28;20042;-78
2023/09/12 07:24:48;;;;;;;75.07;42.03;;;;;;;;;;4979738;28;20129;-74
2023/09/12 07:27:14;;;;;;;66.57;41.45;;;;;;;;;;4984571;28;20049;-73
2023/09/12 07:29:40;;;;;;;65.90;39.78;;;;;;;;;;4980384;28;20556;-73
2023/09/12 07:32:06;;;;;;;63.13;39.13;;;;;;;;;;4981553;28;20034;-74
2023/09/12 07:34:33;;;;;;;67.75;40.50;;;;;;;;;;4985414;28;21230;-74
2023/09/12 07:36:59;;;;;;;60.92;38.53;;;;;;;;;;4980912;28;20495;-74
2023/09/12 07:39:25;;;;;;;66.03;41.03;;;;;;;;;;4981594;28;20058;-74
2023/09/12 07:41:51;;;;;;;70.55;41.88;;;;;;;;;;4978148;28;20109;-73
2023/09/12 07:44:17;;;;;;;75.28;42.13;;;;;;;;;;4982167;28;20153;-74
2023/09/12 07:46:44;;;;;;;70.82;42.72;;;;;;;;;;4985286;28;20031;-74
2023/09/12 07:49:10;;;;;;;76.70;43.67;;;;;;;;;;4983077;28;20038;-73
2023/09/12 07:51:36;;;;;;;69.25;41.80;;;;;;;;;;4982043;28;20037;-74
2023/09/12 07:54:02;;;;;;;65.00;41.58;;;;;;;;;;4987650;28;20420;-75
2023/09/12 07:56:28;;;;;;;75.50;45.50;;;;;;;;;;4984581;28;20027;-76
2023/09/12 07:58:55;;;;;;;67.00;42.15;;;;;;;;;;4986661;28;20577;-73
2023/09/12 08:01:21;;;;;;;71.18;44.65;;;;;;;;;;4981505;28;20053;-75
2023/09/12 08:03:47;;;;;;;68.55;42.28;;;;;;;;;;4993780;28;20037;-75
2023/09/12 08:06:13;;;;;;;65.50;41.70;;;;;;;;;;4986845;28;20031;-74
2023/09/12 08:08:39;;;;;;;73.57;43.13;;;;;;;;;;4969685;28;20030;-75
2023/09/12 08:11:05;;;;;;;68.05;41.17;;;;;;;;;;4991448;28;20118;-74
2023/09/12 08:13:31;;;;;;;72.60;42.60;;;;;;;;;;4985365;28;20058;-75
2023/09/12 08:15:58;;;;;;;72.82;44.63;;;;;;;;;;4986189;28;20511;-76
2023/09/12 08:18:27;;;;;;;70.03;44.08;;;;;;;;;;4987818;28;20023;-74
2023/09/12 08:20:53;;;;;;;77.60;44.55;;;;;;;;;;4981975;28;20308;-75
2023/09/12 08:23:19;;;;;;;67.57;41.03;;;;;;;;;;4980498;28;20408;-75
2023/09/12 08:25:45;;;;;;;75.55;45.20;;;;;;;;;;4985264;28;20415;-75
2023/09/12 08:28:11;;;;;;;76.65;44.08;;;;;;;;;;4988050;28;20563;-75
2023/09/12 08:30:37;;;;;;;79.57;44.28;;;;;;;;;;4992604;28;20035;-75
2023/09/12 08:33:03;;;;;;;72.57;43.50;;;;;;;;;;4985966;28;20412;-75
2023/09/12 08:35:30;;;;;;;70.85;44.30;;;;;;;;;;4984939;28;20034;-75
2023/09/12 08:37:56;;;;;;;71.40;43.65;;;;;;;;;;4970091;28;20038;-76
2023/09/12 08:40:23;;;;;;;79.78;45.60;;;;;;;;;;4982356;28;20038;-75
2023/09/12 08:42:50;;;;;;;78.47;49.33;;;;;;;;;;4988979;28;20026;-78
2023/09/12 08:45:17;;;;;;;81.18;46.85;;;;;;;;;;4982882;28;20150;-77
2023/09/12 08:47:52;;;;;;;84.00;47.10;;;;;;;;;;4981352;28;20038;-76
2023/09/12 08:50:18;;;;;;;72.63;44.58;;;;;;;;;;5000915;28;20266;-74
2023/09/12 08:52:45;;;;;;;76.70;46.22;;;;;;;;;;4978609;28;20462;-76
2023/09/12 08:55:11;;;;;;;76.93;47.13;;;;;;;;;;4982408;28;20040;-75
2023/09/12 08:57:39;;;;;;;79.25;46.17;;;;;;;;;;4979378;28;20030;-82
2023/09/12 09:00:14;;;;;;;89.75;50.67;;;;;;;;;;4985733;28;20487;-76
2023/09/12 09:02:41;;;;;;;94.68;59.38;;;;;;;;;;4981762;28;20026;-76
2023/09/12 09:05:11;;;;;;;98.82;57.78;;;;;;;;;;4985687;28;20053;-76
2023/09/12 09:07:37;;;;;;;92.05;55.75;;;;;;;;;;4984472;28;20098;-79
2023/09/12 09:10:05;;;;;;;101.32;57.45;;;;;;;;;;4985410;28;20036;-83
2023/09/12 09:12:31;;;;;;;105.18;58.00;;;;;;;;;;4986204;28;20041;-77
2023/09/12 09:14:57;;;;;;;93.88;54.47;;;;;;;;;;4986757;28;20396;-77
2023/09/12 09:17:23;;;;;;;84.57;51.10;;;;;;;;;;4987776;28;20162;-77
2023/09/12 09:19:50;;;;;;;100.70;55.40;;;;;;;;;;4989494;28;20432;-78
2023/09/12 09:22:16;;;;;;;80.82;49.38;;;;;;;;;;4980175;28;20034;-77
2023/09/12 09:24:42;;;;;;;71.22;43.15;;;;;;;;;;4989100;28;20240;-76
2023/09/12 09:27:08;;;;;;;68.05;42.30;;;;;;;;;;4979849;28;20053;-77
2023/09/12 09:29:46;;;;;;;56.33;37.95;;;;;;;;;;4995723;28;20038;-77
2023/09/12 09:32:17;;;;;;;62.15;39.05;;;;;;;;;;4978907;28;20460;-79
2023/09/12 09:34:44;;;;;;;56.75;36.67;;;;;;;;;;4990054;28;20039;-78
2023/09/12 09:37:10;;;;;;;50.60;32.17;;;;;;;;;;4983249;28;20048;-76
2023/09/12 09:39:36;;;;;;;48.47;32.72;;;;;;;;;;4988688;28;20019;-74
2023/09/12 09:42:02;;;;;;;45.25;31.73;;;;;;;;;;4986595;28;20038;-74
2023/09/12 09:44:30;;;;;;;50.30;33.38;;;;;;;;;;4987279;28;20026;-75
2023/09/12 09:47:02;;;;;;;41.38;29.52;;;;;;;;;;4981305;28;20693;-76
2023/09/12 09:49:28;;;;;;;36.93;27.73;;;;;;;;;;4981960;28;20468;-76
2023/09/12 09:51:56;;;;;;;36.53;24.75;;;;;;;;;;4987079;28;20309;-77
2023/09/12 09:54:24;;;;;;;40.30;25.73;;;;;;;;;;4979091;28;20034;-76
2023/09/12 09:56:50;;;;;;;32.38;24.83;;;;;;;;;;4987024;28;20023;-75
2023/09/12 09:59:22;;;;;;;33.47;23.55;;;;;;;;;;4986170;28;20023;-74
2023/09/12 10:01:50;;;;;;;33.70;21.67;;;;;;;;;;4982047;28;20034;-74
2023/09/12 10:04:16;;;;;;;29.33;19.98;;;;;;;;;;4984634;28;20047;-74
2023/09/12 10:06:44;;;;;;;27.77;19.88;;;;;;;;;;4984667;28;20472;-76
2023/09/12 10:09:11;;;;;;;27.10;19.35;;;;;;;;;;4985009;28;20034;-75
2023/09/12 10:11:38;;;;;;;25.80;17.98;;;;;;;;;;4985756;28;20113;-79
2023/09/12 10:14:05;;;;;;;26.40;15.75;;;;;;;;;;4978918;28;20032;-76
2023/09/12 10:16:31;;;;;;;20.20;14.82;;;;;;;;;;4984794;28;20211;-76
2023/09/12 10:19:00;;;;;;;20.90;14.30;;;;;;;;;;4979104;28;20027;-75
2023/09/12 10:21:33;;;;;;;21.38;13.70;;;;;;;;;;4978019;28;20133;-77
2023/09/12 10:24:00;;;;;;;19.98;13.63;;;;;;;;;;4980530;28;20027;-76
2023/09/12 10:26:27;;;;;;;19.77;12.63;;;;;;;;;;4991778;28;20038;-79
2023/09/12 10:28:55;;;;;;;24.73;16.20;;;;;;;;;;4982203;28;20109;-78
2023/09/12 10:31:23;;;;;;;19.80;13.93;;;;;;;;;;4976304;28;20425;-78
2023/09/12 10:33:51;;;;;;;19.42;11.57;;;;;;;;;;4984067;28;20089;-79
2023/09/12 10:36:21;;;;;;;18.13;11.82;;;;;;;;;;5005494;28;20039;-79
2023/09/12 10:38:48;;;;;;;17.15;12.32;;;;;;;;;;4982093;28;20068;-79
2023/09/12 10:41:15;;;;;;;18.52;13.30;;;;;;;;;;4983810;28;20033;-77
2023/09/12 10:43:42;;;;;;;24.20;13.27;;;;;;;;;;4980499;28;20110;-78
2023/09/12 10:46:09;;;;;;;17.13;12.25;;;;;;;;;;4983126;28;20081;-78
2023/09/12 10:48:36;;;;;;;20.63;12.98;;;;;;;;;;4987417;28;20070;-79
2023/09/12 10:51:04;;;;;;;17.38;11.32;;;;;;;;;;4978424;28;20468;-75
2023/09/12 10:53:33;;;;;;;14.60;10.70;;;;;;;;;;4978713;28;20472;-75
2023/09/12 10:56:15;;;;;;;20.80;11.85;;;;;;;;;;4980325;28;20031;-75
2023/09/12 10:59:12;;;;;;;18.45;12.07;;;26.50;99.90;;;;;;4977072;28;20146;-75
2023/09/12 11:01:39;;;;;;;19.25;12.05;;;;;;;;;;4981010;28;20034;-76
2023/09/12 11:04:27;;;;;;;20.52;12.18;;;;;;;;;;4981955;28;20066;-75
2023/09/12 11:06:53;;;;;;;24.38;15.55;;;;;;;;;;4997858;28;20030;-75
2023/09/12 11:09:19;;;;;;;19.08;11.65;;;;;;;;;;4984552;28;20050;-75
2023/09/12 11:11:46;;;;;;;17.23;12.40;;;;;;;;;;4987496;28;20022;-75
2023/09/12 11:14:13;;;;;;;17.83;12.02;;;;;;;;;;4987857;28;20280;-75
2023/09/12 11:16:39;;;;;;;17.40;13.38;;;;;;;;;;4980593;28;20042;-78
2023/09/12 11:19:18;;;;;;;18.35;11.95;;;;;;;;;;4970748;28;20023;-78
2023/09/12 11:21:45;;;;;;;14.73;10.65;;;;;;;;;;4980082;28;20516;-77
2023/09/12 11:24:11;;;;;;;16.63;10.88;;;;;;;;;;4985367;28;20103;-76
2023/09/12 11:26:57;;;;;;;14.02;9.57;;;;;;;;;;4981905;28;20128;-75
2023/09/12 11:29:28;;;;;;;11.48;8.55;;;;;;;;;;4984008;28;20422;-76
2023/09/12 11:31:57;;;;;;;14.82;9.98;;;;;;;;;;4981728;28;20415;-76
2023/09/12 11:34:25;;;;;;;13.07;9.00;;;;;;;;;;4986101;28;20447;-78
2023/09/12 11:36:55;;;;;;;20.35;13.30;;;;;;;;;;4985697;28;20344;-81
2023/09/12 11:39:29;;;;;;;21.77;13.55;;;;;;;;;;4984017;28;20109;-85
2023/09/12 11:41:56;;;;;;;13.32;9.50;;;;;;;;;;4981327;28;21278;-75
2023/09/12 11:44:22;;;;;;;21.50;10.05;;;;;;;;;;4981692;28;20042;-74
2023/09/12 11:46:52;;;;;;;13.38;9.15;;;;;;;;;;4983015;28;20030;-74
2023/09/12 11:49:19;;;;;;;12.00;9.45;;;;;;;;;;4982244;28;20054;-75
2023/09/12 11:51:49;;;;;;;14.10;8.73;;;;;;;;;;4984354;28;20117;-75
2023/09/12 11:54:16;;;;;;;13.23;8.25;;;;;;;;;;4986464;28;20309;-75
2023/09/12 11:56:42;;;;;;;12.30;8.52;;;;;;;;;;4987070;28;20073;-75
2023/09/12 11:59:09;;;;;;;18.75;9.23;;;;;;;;;;4984644;28;20031;-75
2023/09/12 12:01:35;;;;;;;16.58;9.07;;;;;;;;;;4986632;28;20137;-75
2023/09/12 12:04:01;;;;;;;12.32;8.77;;;;;;;;;;4985937;28;20507;-75
2023/09/12 12:06:29;;;;;;;13.82;7.53;;;;;;;;;;4987693;28;20106;-75
2023/09/12 12:08:55;;;;;;;12.75;7.50;;;;;;;;;;4987027;28;20089;-75
2023/09/12 12:11:21;;;;;;;15.70;7.38;;;;;;;;;;4985103;28;20033;-75
2023/09/12 12:13:48;;;;;;;13.07;8.10;;;;;;;;;;4985775;28;20125;-75
2023/09/12 12:16:17;;;;;;;10.65;7.18;;;;;;;;;;4987514;28;20084;-75
2023/09/12 12:18:43;;;;;;;10.23;7.43;;;;;;;;;;4987165;28;20080;-75
2023/09/12 12:21:09;;;;;;;12.35;7.20;;;;;;;;;;4986247;28;20022;-75
2023/09/12 12:23:35;;;;;;;10.40;5.95;;;;;;;;;;4986095;28;20097;-74
2023/09/12 12:26:09;;;;;;;12.07;6.13;;;;;;;;;;4985145;28;20428;-74
2023/09/12 12:28:38;;;;;;;11.40;5.93;;;;;;;;;;4986016;28;20480;-74
2023/09/12 12:31:04;;;;;;;10.82;6.63;;;;;;;;;;4982231;28;20030;-75
2023/09/12 12:33:31;;;;;;;9.02;6.15;;;;;;;;;;4992417;28;20077;-75
2023/09/12 12:36:04;;;;;;;13.93;7.40;;;;;;;;;;4985364;28;20489;-75
2023/09/12 12:38:35;;;;;;;10.65;6.90;;;;;;;;;;4983528;28;20023;-75
2023/09/12 12:41:01;;;;;;;14.77;6.32;;;;;;;;;;4989945;28;20027;-76
2023/09/12 12:43:27;;;;;;;13.88;7.05;;;;;;;;;;4988251;28;20022;-75
2023/09/12 12:45:57;;;;;;;12.70;7.03;;;;;;;;;;4984982;28;20042;-74
2023/09/12 12:48:33;;;;;;;10.40;6.88;;;;;;;;;;4987288;28;20033;-75
2023/09/12 12:50:59;;;;;;;10.60;6.53;;;;;;;;;;4986024;28;20346;-75
2023/09/12 12:53:38;;;;;;;15.13;6.60;;;;;;;;;;4985354;28;20018;-74
2023/09/12 12:56:04;;;;;;;14.00;7.32;;;;;;;;;;4978881;28;20098;-75
2023/09/12 12:58:31;;;;;;;9.32;6.50;;;;;;;;;;4988124;28;20035;-76
2023/09/12 13:00:57;;;;;;;11.02;6.45;;;;;;;;;;4985082;28;20408;-75
2023/09/12 13:03:23;;;;;;;10.27;6.57;;;;;;;;;;4987543;28;20092;-75
2023/09/12 13:05:49;;;;;;;9.35;5.97;;;;;;;;;;4984806;28;20080;-75
2023/09/12 13:08:15;;;;;;;6.95;5.03;;;;;;;;;;4988713;28;20492;-75
2023/09/12 13:10:42;;;;;;;7.75;5.75;;;;;;;;;;4987993;28;20500;-76
2023/09/12 13:13:08;;;;;;;9.57;5.40;;;;;;;;;;4987038;28;20034;-74
2023/09/12 13:15:34;;;;;;;8.00;5.63;;;;;;;;;;4987007;28;20065;-74
2023/09/12 13:18:01;;;;;;;7.55;5.95;;;;;;;;;;4981680;28;20061;-74
2023/09/12 13:20:27;;;;;;;9.48;5.45;;;;;;;;;;4989199;28;20030;-74
2023/09/12 13:22:53;;;;;;;8.00;5.78;;;;;;;;;;4986449;28;20031;-74
2023/09/12 13:25:21;;;;;;;9.75;7.00;;;;;;;;;;4988609;28;20459;-74
2023/09/12 13:27:47;;;;;;;9.63;6.60;;;;;;;;;;4980691;28;20039;-75
2023/09/12 13:30:13;;;;;;;11.82;7.10;;;;;;;;;;4982989;28;20045;-75
2023/09/12 13:32:39;;;;;;;7.78;5.95;;;;;;;;;;5008755;28;20052;-74
2023/09/12 13:35:06;;;;;;;8.90;5.95;;;;;;;;;;4989496;28;20117;-74
2023/09/12 13:37:32;;;;;;;7.45;5.68;;;;;;;;;;4989667;28;20058;-74
2023/09/12 13:39:58;;;;;;;10.35;6.35;;;;;;;;;;4980228;28;20058;-76
2023/09/12 13:42:28;;;;;;;8.05;5.70;;;;;;;;;;4978137;28;20049;-74
2023/09/12 13:44:54;;;;;;;8.55;6.68;;;;;;;;;;4984629;28;20045;-75
2023/09/12 13:47:23;;;;;;;13.18;5.95;;;;;;;;;;4984147;28;20054;-75
2023/09/12 13:49:51;;;;;;;8.32;4.90;;;;;;;;;;4978470;28;20128;-75
2023/09/12 13:52:19;;;;;;;7.13;4.82;;;;;;;;;;4983722;28;20982;-75
2023/09/12 13:54:45;;;;;;;8.35;4.25;;;;;;;;;;4984873;28;20030;-75
2023/09/12 13:57:11;;;;;;;8.05;4.93;;;;;;;;;;4983448;28;20030;-75
2023/09/12 13:59:37;;;;;;;7.28;3.67;;;;;;;;;;4983784;28;20031;-74
2023/09/12 14:02:04;;;;;;;13.70;9.75;;;;;;;;;;4980213;28;20038;-83
2023/09/12 14:04:30;;;;;;;10.20;8.00;;;;;;;;;;4984537;28;20035;-84
2023/09/12 14:06:56;;;;;;;7.30;5.38;;;;;;;;;;4987689;28;20043;-84
2023/09/12 14:09:22;;;;;;;8.35;4.07;;;;;;;;;;4984393;28;20046;-84
2023/09/12 14:11:48;;;;;;;6.80;4.18;;;;;;;;;;4979192;28;20022;-84
2023/09/12 14:14:14;;;;;;;10.63;7.30;;;;;;;;;;4981033;28;20055;-83
2023/09/12 14:16:40;;;;;;;9.75;5.40;;;;;;;;;;4984928;28;20042;-83
2023/09/12 14:19:06;;;;;;;6.60;5.03;;;;;;;;;;4988778;28;20032;-84